createdAt,value
2017-05-15T00:00:51.538Z,247.50
2017-05-15T00:01:51.599Z,270.00
2017-05-15T00:02:51.547Z,292.50
2017-05-15T00:03:51.556Z,315.00
2017-05-15T00:04:51.560Z,247.50
2017-05-15T00:05:51.559Z,270.00
2017-05-15T00:06:51.574Z,157.50
2017-05-15T00:07:51.581Z,315.00
2017-05-15T00:08:51.552Z,180.00
2017-05-15T00:09:51.573Z,67.50
2017-05-15T00:10:51.604Z,202.50
2017-05-15T00:11:51.554Z,67.50
2017-05-15T00:12:51.568Z,135.00
2017-05-15T00:13:51.673Z,180.00
2017-05-15T00:14:51.586Z,202.50
2017-05-15T00:15:51.571Z,157.50
2017-05-15T00:16:51.558Z,157.50
2017-05-15T00:17:51.569Z,180.00
2017-05-15T00:18:51.559Z,135.00
2017-05-15T00:19:51.613Z,135.00
2017-05-15T00:20:51.561Z,135.00
2017-05-15T00:21:51.544Z,157.50
2017-05-15T00:22:51.590Z,202.50
2017-05-15T00:23:51.557Z,157.50
2017-05-15T00:24:51.541Z,180.00
2017-05-15T00:25:51.581Z,180.00
2017-05-15T00:26:51.664Z,157.50
2017-05-15T00:27:51.575Z,90.00
2017-05-15T00:28:51.579Z,67.50
2017-05-15T00:29:51.618Z,90.00
2017-05-15T00:30:51.585Z,112.50
2017-05-15T00:31:51.568Z,90.00
2017-05-15T00:32:51.578Z,90.00
2017-05-15T00:33:51.572Z,45.00
2017-05-15T00:34:51.571Z,22.50
2017-05-15T00:35:51.575Z,225.00
2017-05-15T00:36:51.622Z,22.50
2017-05-15T00:37:51.571Z,45.00
2017-05-15T00:38:51.578Z,202.50
2017-05-15T00:39:51.548Z,112.50
2017-05-15T00:40:51.541Z,225.00
2017-05-15T00:41:51.570Z,270.00
2017-05-15T00:42:51.555Z,225.00
2017-05-15T00:43:51.575Z,225.00
2017-05-15T00:44:51.567Z,315.00
2017-05-15T00:45:51.565Z,337.50
2017-05-15T00:46:51.572Z,337.50
2017-05-15T00:47:51.573Z,247.50
2017-05-15T00:48:51.574Z,337.50
2017-05-15T00:49:51.565Z,292.50
2017-05-15T00:50:51.577Z,292.50
2017-05-15T00:51:51.604Z,202.50
2017-05-15T00:52:51.583Z,157.50
2017-05-15T00:53:51.576Z,22.50
2017-05-15T00:54:51.586Z,112.50
2017-05-15T00:55:51.592Z,67.50
2017-05-15T00:56:51.591Z,22.50
2017-05-15T00:57:51.594Z,22.50
2017-05-15T00:58:51.556Z,67.50
2017-05-15T00:59:51.637Z,90.00
2017-05-15T01:00:51.554Z,45.00
2017-05-15T01:01:51.593Z,90.00
2017-05-15T01:02:51.616Z,67.50
2017-05-15T01:03:51.630Z,180.00
2017-05-15T01:04:51.582Z,247.50
2017-05-15T01:05:51.588Z,202.50
2017-05-15T01:06:51.585Z,112.50
2017-05-15T01:07:51.573Z,22.50
2017-05-15T01:08:51.592Z,22.50
2017-05-15T01:09:51.597Z,22.50
2017-05-15T01:10:51.588Z,45.00
2017-05-15T01:11:51.585Z,22.50
2017-05-15T01:12:51.602Z,22.50
2017-05-15T01:13:51.615Z,22.50
2017-05-15T01:14:51.586Z,22.50
2017-05-15T01:15:51.596Z,45.00
2017-05-15T01:16:51.635Z,180.00
2017-05-15T01:17:51.586Z,180.00
2017-05-15T01:18:51.600Z,157.50
2017-05-15T01:19:51.598Z,180.00
2017-05-15T01:20:51.567Z,202.50
2017-05-15T01:21:51.567Z,180.00
2017-05-15T01:22:51.568Z,247.50
2017-05-15T01:23:51.569Z,157.50
2017-05-15T01:24:51.568Z,292.50
2017-05-15T01:25:51.569Z,315.00
2017-05-15T01:26:51.573Z,225.00
2017-05-15T01:27:51.574Z,202.50
2017-05-15T01:28:51.574Z,135.00
2017-05-15T01:29:51.571Z,45.00
2017-05-15T01:30:51.651Z,180.00
2017-05-15T01:31:51.603Z,157.50
2017-05-15T01:32:51.575Z,67.50
2017-05-15T01:33:51.608Z,270.00
2017-05-15T01:34:51.605Z,67.50
2017-05-15T01:35:51.627Z,90.00
2017-05-15T01:36:51.577Z,180.00
2017-05-15T01:37:51.623Z,135.00
2017-05-15T01:38:51.644Z,67.50
2017-05-15T01:39:51.604Z,22.50
2017-05-15T01:40:51.613Z,45.00
2017-05-15T01:41:51.601Z,22.50
2017-05-15T01:42:51.651Z,22.50
2017-05-15T01:43:51.602Z,45.00
2017-05-15T01:44:51.608Z,22.50
2017-05-15T01:45:51.599Z,22.50
2017-05-15T01:46:51.602Z,22.50
2017-05-15T01:47:51.615Z,22.50
2017-05-15T01:48:51.616Z,45.00
2017-05-15T01:49:51.658Z,45.00
2017-05-15T01:50:51.565Z,22.50
2017-05-15T01:51:51.605Z,22.50
2017-05-15T01:52:51.606Z,45.00
2017-05-15T01:53:51.653Z,45.00
2017-05-15T01:54:51.604Z,45.00
2017-05-15T01:55:51.606Z,45.00
2017-05-15T01:56:51.621Z,45.00
2017-05-15T01:57:51.610Z,67.50
2017-05-15T01:58:51.612Z,112.50
2017-05-15T01:59:51.599Z,135.00
2017-05-15T02:00:51.586Z,112.50
2017-05-15T02:01:51.613Z,90.00
2017-05-15T02:02:51.620Z,90.00
2017-05-15T02:03:51.611Z,90.00
2017-05-15T02:04:51.591Z,90.00
2017-05-15T02:05:51.610Z,90.00
2017-05-15T02:06:51.660Z,45.00
2017-05-15T02:07:51.663Z,22.50
2017-05-15T02:08:51.619Z,22.50
2017-05-15T02:09:51.626Z,22.50
2017-05-15T02:10:51.605Z,112.50
2017-05-15T02:11:51.614Z,135.00
2017-05-15T02:12:51.612Z,90.00
2017-05-15T02:13:51.613Z,67.50
2017-05-15T02:14:51.573Z,112.50
2017-05-15T02:15:51.603Z,90.00
2017-05-15T02:16:51.819Z,67.50
2017-05-15T02:17:51.617Z,45.00
2017-05-15T02:18:51.621Z,45.00
2017-05-15T02:19:51.616Z,45.00
2017-05-15T02:20:51.597Z,45.00
2017-05-15T02:21:51.608Z,45.00
2017-05-15T02:22:51.602Z,90.00
2017-05-15T02:23:51.604Z,67.50
2017-05-15T02:24:51.599Z,45.00
2017-05-15T02:25:51.602Z,22.50
2017-05-15T02:26:51.602Z,22.50
2017-05-15T02:27:51.607Z,22.50
2017-05-15T02:28:51.601Z,22.50
2017-05-15T02:29:51.602Z,22.50
2017-05-15T02:30:51.623Z,22.50
2017-05-15T02:31:51.628Z,315.00
2017-05-15T02:32:51.625Z,315.00
2017-05-15T02:33:51.641Z,337.50
2017-05-15T02:34:51.623Z,202.50
2017-05-15T02:35:51.641Z,202.50
2017-05-15T02:36:51.624Z,67.50
2017-05-15T02:37:51.651Z,45.00
2017-05-15T02:38:51.592Z,90.00
2017-05-15T02:39:51.626Z,112.50
2017-05-15T02:40:51.641Z,112.50
2017-05-15T02:41:51.653Z,157.50
2017-05-15T02:42:51.606Z,157.50
2017-05-15T02:43:51.623Z,45.00
2017-05-15T02:44:51.632Z,22.50
2017-05-15T02:45:51.633Z,157.50
2017-05-15T02:46:51.605Z,22.50
2017-05-15T02:47:51.637Z,45.00
2017-05-15T02:48:51.614Z,45.00
2017-05-15T02:49:51.640Z,45.00
2017-05-15T02:50:51.630Z,22.50
2017-05-15T02:51:51.633Z,45.00
2017-05-15T02:52:51.634Z,45.00
2017-05-15T02:53:51.589Z,67.50
2017-05-15T02:54:51.639Z,45.00
2017-05-15T02:55:51.634Z,45.00
2017-05-15T02:56:51.628Z,45.00
2017-05-15T02:57:51.640Z,45.00
2017-05-15T02:58:51.639Z,67.50
2017-05-15T02:59:51.636Z,67.50
2017-05-15T03:00:51.616Z,67.50
2017-05-15T03:01:51.617Z,67.50
2017-05-15T03:02:51.614Z,45.00
2017-05-15T03:03:51.617Z,45.00
2017-05-15T03:04:51.617Z,45.00
2017-05-15T03:05:51.622Z,22.50
2017-05-15T03:06:51.621Z,22.50
2017-05-15T03:07:51.621Z,22.50
2017-05-15T03:08:51.625Z,45.00
2017-05-15T03:09:51.624Z,45.00
2017-05-15T03:10:51.624Z,45.00
2017-05-15T03:11:51.642Z,45.00
2017-05-15T03:12:51.645Z,45.00
2017-05-15T03:13:51.657Z,45.00
2017-05-15T03:14:51.657Z,45.00
2017-05-15T03:15:51.626Z,45.00
2017-05-15T03:16:51.677Z,22.50
2017-05-15T03:17:51.681Z,22.50
2017-05-15T03:18:51.676Z,45.00
2017-05-15T03:19:51.678Z,112.50
2017-05-15T03:20:51.654Z,135.00
2017-05-15T03:21:51.658Z,112.50
2017-05-15T03:22:51.700Z,90.00
2017-05-15T03:23:51.660Z,112.50
2017-05-15T03:24:51.702Z,112.50
2017-05-15T03:25:51.660Z,112.50
2017-05-15T03:26:51.662Z,247.50
2017-05-15T03:27:51.651Z,247.50
2017-05-15T03:28:51.662Z,202.50
2017-05-15T03:29:51.662Z,315.00
2017-05-15T03:30:51.685Z,135.00
2017-05-15T03:31:51.649Z,247.50
2017-05-15T03:32:51.664Z,337.50
2017-05-15T03:33:51.647Z,202.50
2017-05-15T03:34:51.622Z,225.00
2017-05-15T03:35:51.672Z,202.50
2017-05-15T03:36:51.651Z,202.50
2017-05-15T03:37:51.663Z,202.50
2017-05-15T03:38:51.658Z,247.50
2017-05-15T03:39:51.659Z,247.50
2017-05-15T03:40:51.670Z,112.50
2017-05-15T03:41:51.709Z,112.50
2017-05-15T03:42:51.667Z,202.50
2017-05-15T03:43:51.669Z,157.50
2017-05-15T03:44:51.664Z,180.00
2017-05-15T03:45:51.668Z,180.00
2017-05-15T03:46:51.669Z,202.50
2017-05-15T03:47:51.667Z,180.00
2017-05-15T03:48:51.667Z,180.00
2017-05-15T03:49:51.659Z,202.50
2017-05-15T03:50:51.718Z,112.50
2017-05-15T03:51:51.668Z,0.00
2017-05-15T03:52:51.657Z,337.50
2017-05-15T03:53:51.671Z,45.00
2017-05-15T03:54:51.732Z,45.00
2017-05-15T03:55:51.667Z,112.50
2017-05-15T03:56:51.665Z,22.50
2017-05-15T03:57:51.676Z,22.50
2017-05-15T03:58:51.676Z,45.00
2017-05-15T03:59:51.701Z,22.50
2017-05-15T04:00:51.721Z,22.50
2017-05-15T04:01:51.748Z,22.50
2017-05-15T04:02:51.670Z,22.50
2017-05-15T04:03:51.723Z,67.50
2017-05-15T04:04:51.671Z,22.50
2017-05-15T04:05:51.665Z,22.50
2017-05-15T04:06:51.678Z,22.50
2017-05-15T04:07:51.679Z,22.50
2017-05-15T04:08:51.679Z,22.50
2017-05-15T04:09:51.653Z,22.50
2017-05-15T04:10:51.703Z,45.00
2017-05-15T04:11:51.652Z,22.50
2017-05-15T04:12:51.725Z,247.50
2017-05-15T04:13:51.686Z,22.50
2017-05-15T04:14:51.686Z,22.50
2017-05-15T04:15:51.685Z,22.50
2017-05-15T04:16:51.682Z,22.50
2017-05-15T04:17:51.676Z,45.00
2017-05-15T04:18:51.678Z,225.00
2017-05-15T04:19:51.675Z,180.00
2017-05-15T04:20:51.733Z,292.50
2017-05-15T04:21:51.689Z,292.50
2017-05-15T04:22:51.690Z,315.00
2017-05-15T04:23:51.710Z,247.50
2017-05-15T04:24:51.733Z,292.50
2017-05-15T04:25:51.687Z,202.50
2017-05-15T04:26:51.698Z,292.50
2017-05-15T04:27:51.694Z,112.50
2017-05-15T04:28:51.685Z,157.50
2017-05-15T04:29:51.752Z,225.00
2017-05-15T04:30:51.686Z,180.00
2017-05-15T04:31:51.640Z,180.00
2017-05-15T04:32:51.684Z,180.00
2017-05-15T04:33:51.681Z,67.50
2017-05-15T04:34:51.687Z,45.00
2017-05-15T04:35:51.688Z,157.50
2017-05-15T04:36:51.695Z,22.50
2017-05-15T04:37:51.686Z,225.00
2017-05-15T04:38:51.718Z,292.50
2017-05-15T04:39:51.704Z,292.50
2017-05-15T04:40:51.688Z,225.00
2017-05-15T04:41:51.684Z,135.00
2017-05-15T04:42:51.702Z,247.50
2017-05-15T04:43:51.668Z,202.50
2017-05-15T04:44:51.704Z,315.00
2017-05-15T04:45:51.697Z,270.00
2017-05-15T04:46:51.692Z,270.00
2017-05-15T04:47:51.691Z,315.00
2017-05-15T04:48:51.701Z,270.00
2017-05-15T04:49:51.694Z,247.50
2017-05-15T04:50:51.696Z,202.50
2017-05-15T04:51:51.703Z,202.50
2017-05-15T04:52:51.743Z,202.50
2017-05-15T04:53:51.670Z,337.50
2017-05-15T04:54:51.705Z,157.50
2017-05-15T04:55:51.678Z,135.00
2017-05-15T04:56:51.704Z,90.00
2017-05-15T04:57:51.705Z,270.00
2017-05-15T04:58:51.782Z,67.50
2017-05-15T04:59:51.754Z,90.00
2017-05-15T05:00:51.714Z,45.00
2017-05-15T05:01:51.698Z,67.50
2017-05-15T05:02:51.700Z,67.50
2017-05-15T05:03:51.706Z,90.00
2017-05-15T05:04:51.665Z,112.50
2017-05-15T05:05:51.700Z,45.00
2017-05-15T05:06:51.698Z,67.50
2017-05-15T05:07:51.702Z,22.50
2017-05-15T05:08:51.699Z,22.50
2017-05-15T05:09:51.701Z,22.50
2017-05-15T05:10:51.704Z,22.50
2017-05-15T05:11:51.682Z,270.00
2017-05-15T05:12:51.685Z,225.00
2017-05-15T05:13:51.686Z,45.00
2017-05-15T05:14:51.682Z,202.50
2017-05-15T05:15:51.689Z,315.00
2017-05-15T05:16:51.681Z,270.00
2017-05-15T05:17:51.683Z,247.50
2017-05-15T05:18:51.687Z,292.50
2017-05-15T05:19:51.689Z,292.50
2017-05-15T05:20:51.691Z,292.50
2017-05-15T05:21:51.708Z,292.50
2017-05-15T05:22:51.711Z,292.50
2017-05-15T05:23:51.812Z,292.50
2017-05-15T05:24:51.710Z,292.50
2017-05-15T05:25:51.709Z,292.50
2017-05-15T05:26:51.709Z,270.00
2017-05-15T05:27:51.713Z,270.00
2017-05-15T05:28:51.706Z,270.00
2017-05-15T05:29:51.712Z,270.00
2017-05-15T05:30:51.714Z,292.50
2017-05-15T05:31:51.689Z,270.00
2017-05-15T05:32:51.688Z,292.50
2017-05-15T05:33:51.686Z,247.50
2017-05-15T05:34:51.691Z,292.50
2017-05-15T05:35:51.696Z,292.50
2017-05-15T05:36:51.690Z,292.50
2017-05-15T05:37:51.691Z,292.50
2017-05-15T05:38:51.692Z,270.00
2017-05-15T05:39:51.694Z,292.50
2017-05-15T05:40:51.693Z,292.50
2017-05-15T05:41:51.700Z,270.00
2017-05-15T05:42:51.700Z,292.50
2017-05-15T05:43:51.698Z,270.00
2017-05-15T05:44:51.702Z,270.00
2017-05-15T05:45:51.703Z,292.50
2017-05-15T05:46:51.703Z,292.50
2017-05-15T05:47:51.703Z,292.50
2017-05-15T05:48:51.704Z,270.00
2017-05-15T05:49:51.703Z,247.50
2017-05-15T05:50:51.700Z,270.00
2017-05-15T05:51:51.702Z,270.00
2017-05-15T05:52:51.700Z,270.00
2017-05-15T05:53:51.701Z,292.50
2017-05-15T05:54:51.706Z,270.00
2017-05-15T05:55:51.707Z,270.00
2017-05-15T05:56:51.703Z,292.50
2017-05-15T05:57:51.705Z,270.00
2017-05-15T05:58:51.705Z,292.50
2017-05-15T05:59:51.708Z,315.00
2017-05-15T06:00:51.716Z,225.00
2017-05-15T06:01:51.679Z,270.00
2017-05-15T06:02:51.680Z,270.00
2017-05-15T06:03:51.631Z,270.00
2017-05-15T06:04:51.641Z,270.00
2017-05-15T06:05:51.679Z,270.00
2017-05-15T06:06:51.675Z,247.50
2017-05-15T06:07:51.677Z,270.00
2017-05-15T06:08:51.648Z,247.50
2017-05-15T06:09:51.646Z,247.50
2017-05-15T06:10:51.687Z,292.50
2017-05-15T06:11:51.724Z,270.00
2017-05-15T06:12:51.802Z,292.50
2017-05-15T06:13:51.737Z,315.00
2017-05-15T06:14:51.734Z,270.00
2017-05-15T06:15:51.735Z,247.50
2017-05-15T06:16:51.732Z,292.50
2017-05-15T06:17:51.735Z,270.00
2017-05-15T06:18:51.728Z,270.00
2017-05-15T06:19:51.736Z,270.00
2017-05-15T06:20:51.731Z,270.00
2017-05-15T06:21:51.713Z,292.50
2017-05-15T06:22:51.718Z,292.50
2017-05-15T06:23:51.716Z,270.00
2017-05-15T06:24:51.716Z,247.50
2017-05-15T06:25:51.718Z,180.00
2017-05-15T06:26:51.717Z,270.00
2017-05-15T06:27:51.722Z,270.00
2017-05-15T06:28:51.719Z,270.00
2017-05-15T06:29:51.719Z,270.00
2017-05-15T06:30:51.721Z,270.00
2017-05-15T06:31:51.796Z,292.50
2017-05-15T06:32:51.750Z,270.00
2017-05-15T06:33:51.755Z,270.00
2017-05-15T06:34:51.794Z,270.00
2017-05-15T06:35:51.751Z,292.50
2017-05-15T06:36:51.772Z,315.00
2017-05-15T06:37:51.863Z,270.00
2017-05-15T06:38:51.762Z,270.00
2017-05-15T06:39:51.753Z,270.00
2017-05-15T06:40:51.757Z,292.50
2017-05-15T06:41:51.746Z,292.50
2017-05-15T06:42:51.757Z,270.00
2017-05-15T06:43:51.760Z,292.50
2017-05-15T06:44:51.758Z,270.00
2017-05-15T06:45:51.725Z,292.50
2017-05-15T06:46:51.762Z,270.00
2017-05-15T06:47:51.783Z,202.50
2017-05-15T06:48:51.763Z,202.50
2017-05-15T06:49:51.785Z,315.00
2017-05-15T06:50:51.748Z,270.00
2017-05-15T06:51:51.752Z,247.50
2017-05-15T06:52:51.758Z,270.00
2017-05-15T06:53:51.751Z,225.00
2017-05-15T06:54:51.762Z,135.00
2017-05-15T06:55:51.755Z,90.00
2017-05-15T06:56:51.751Z,292.50
2017-05-15T06:57:51.752Z,292.50
2017-05-15T06:58:51.759Z,247.50
2017-05-15T06:59:51.754Z,247.50
2017-05-15T07:00:51.750Z,225.00
2017-05-15T07:01:51.735Z,270.00
2017-05-15T07:02:51.737Z,270.00
2017-05-15T07:03:51.836Z,225.00
2017-05-15T07:04:51.739Z,112.50
2017-05-15T07:05:51.736Z,135.00
2017-05-15T07:06:51.738Z,180.00
2017-05-15T07:07:51.739Z,135.00
2017-05-15T07:08:51.738Z,90.00
2017-05-15T07:09:51.743Z,247.50
2017-05-15T07:10:51.740Z,180.00
2017-05-15T07:11:51.764Z,202.50
2017-05-15T07:12:51.741Z,315.00
2017-05-15T07:13:51.775Z,292.50
2017-05-15T07:14:51.767Z,157.50
2017-05-15T07:15:51.760Z,292.50
2017-05-15T07:16:51.768Z,180.00
2017-05-15T07:17:51.798Z,157.50
2017-05-15T07:18:51.768Z,135.00
2017-05-15T07:19:51.765Z,157.50
2017-05-15T07:20:51.741Z,135.00
2017-05-15T07:21:51.772Z,90.00
2017-05-15T07:22:51.743Z,112.50
2017-05-15T07:23:51.747Z,112.50
2017-05-15T07:24:51.746Z,112.50
2017-05-15T07:25:51.751Z,135.00
2017-05-15T07:26:51.751Z,157.50
2017-05-15T07:27:51.749Z,112.50
2017-05-15T07:28:51.751Z,135.00
2017-05-15T07:29:51.754Z,90.00
2017-05-15T07:30:51.746Z,90.00
2017-05-15T07:31:51.748Z,247.50
2017-05-15T07:32:51.771Z,225.00
2017-05-15T07:33:51.774Z,202.50
2017-05-15T07:34:51.775Z,225.00
2017-05-15T07:35:51.776Z,112.50
2017-05-15T07:36:51.776Z,180.00
2017-05-15T07:37:51.777Z,225.00
2017-05-15T07:38:51.777Z,247.50
2017-05-15T07:39:51.777Z,157.50
2017-05-15T07:40:51.784Z,112.50
2017-05-15T07:41:51.780Z,202.50
2017-05-15T07:42:51.791Z,202.50
2017-05-15T07:43:51.783Z,247.50
2017-05-15T07:44:51.764Z,180.00
2017-05-15T07:45:51.787Z,112.50
2017-05-15T07:46:51.793Z,112.50
2017-05-15T07:47:51.781Z,225.00
2017-05-15T07:48:51.782Z,135.00
2017-05-15T07:49:51.788Z,135.00
2017-05-15T07:50:51.793Z,67.50
2017-05-15T07:51:51.790Z,90.00
2017-05-15T07:52:51.765Z,67.50
2017-05-15T07:53:51.764Z,157.50
2017-05-15T07:54:51.764Z,270.00
2017-05-15T07:55:51.769Z,135.00
2017-05-15T07:56:51.763Z,225.00
2017-05-15T07:57:51.767Z,247.50
2017-05-15T07:58:51.766Z,292.50
2017-05-15T07:59:51.764Z,202.50
2017-05-15T08:00:51.765Z,225.00
2017-05-15T08:01:51.771Z,90.00
2017-05-15T08:02:51.785Z,135.00
2017-05-15T08:03:51.789Z,157.50
2017-05-15T08:04:51.764Z,90.00
2017-05-15T08:05:51.791Z,247.50
2017-05-15T08:06:51.804Z,225.00
2017-05-15T08:07:51.844Z,270.00
2017-05-15T08:08:51.874Z,180.00
2017-05-15T08:09:51.806Z,67.50
2017-05-15T08:10:51.804Z,270.00
2017-05-15T08:11:51.916Z,270.00
2017-05-15T08:12:51.794Z,247.50
2017-05-15T08:13:51.792Z,180.00
2017-05-15T08:14:51.797Z,202.50
2017-05-15T08:15:51.791Z,225.00
2017-05-15T08:16:51.786Z,135.00
2017-05-15T08:17:51.798Z,292.50
2017-05-15T08:18:51.797Z,270.00
2017-05-15T08:19:51.798Z,180.00
2017-05-15T08:20:51.827Z,157.50
2017-05-15T08:21:51.797Z,270.00
2017-05-15T08:22:51.792Z,292.50
2017-05-15T08:23:51.796Z,270.00
2017-05-15T08:24:51.802Z,270.00
2017-05-15T08:25:51.798Z,135.00
2017-05-15T08:26:51.797Z,112.50
2017-05-15T08:27:51.802Z,135.00
2017-05-15T08:28:51.799Z,180.00
2017-05-15T08:29:51.800Z,202.50
2017-05-15T08:30:51.802Z,270.00
2017-05-15T08:31:51.805Z,292.50
2017-05-15T08:32:51.801Z,247.50
2017-05-15T08:33:51.818Z,112.50
2017-05-15T08:34:51.832Z,135.00
2017-05-15T08:35:51.810Z,135.00
2017-05-15T08:36:51.807Z,112.50
2017-05-15T08:37:51.807Z,292.50
2017-05-15T08:38:51.837Z,270.00
2017-05-15T08:39:51.838Z,292.50
2017-05-15T08:40:51.824Z,270.00
2017-05-15T08:41:51.818Z,270.00
2017-05-15T08:42:51.811Z,225.00
2017-05-15T08:43:51.818Z,292.50
2017-05-15T08:44:51.822Z,247.50
2017-05-15T08:45:51.846Z,225.00
2017-05-15T08:46:51.821Z,247.50
2017-05-15T08:47:51.822Z,157.50
2017-05-15T08:48:51.831Z,135.00
2017-05-15T08:49:51.826Z,270.00
2017-05-15T08:50:51.814Z,180.00
2017-05-15T08:51:51.839Z,90.00
2017-05-15T08:52:51.868Z,135.00
2017-05-15T08:53:51.845Z,112.50
2017-05-15T08:54:51.825Z,202.50
2017-05-15T08:55:51.816Z,202.50
2017-05-15T08:56:51.814Z,180.00
2017-05-15T08:57:51.818Z,112.50
2017-05-15T08:58:51.814Z,202.50
2017-05-15T08:59:51.789Z,225.00
2017-05-15T09:00:51.852Z,202.50
2017-05-15T09:01:51.813Z,135.00
2017-05-15T09:02:51.852Z,67.50
2017-05-15T09:03:51.797Z,135.00
2017-05-15T09:04:51.836Z,157.50
2017-05-15T09:05:51.824Z,202.50
2017-05-15T09:06:51.828Z,202.50
2017-05-15T09:07:51.828Z,225.00
2017-05-15T09:08:51.824Z,270.00
2017-05-15T09:09:51.833Z,202.50
2017-05-15T09:10:51.825Z,270.00
2017-05-15T09:11:51.841Z,270.00
2017-05-15T09:12:51.834Z,247.50
2017-05-15T09:13:51.834Z,270.00
2017-05-15T09:14:51.829Z,270.00
2017-05-15T09:15:51.830Z,270.00
2017-05-15T09:16:51.836Z,270.00
2017-05-15T09:17:51.829Z,270.00
2017-05-15T09:18:51.830Z,292.50
2017-05-15T09:19:51.803Z,247.50
2017-05-15T09:21:51.839Z,90.00
2017-05-15T09:22:51.841Z,180.00
2017-05-15T09:23:51.882Z,135.00
2017-05-15T09:24:51.832Z,135.00
2017-05-15T09:25:51.957Z,157.50
2017-05-15T09:26:51.810Z,315.00
2017-05-15T09:27:51.844Z,180.00
2017-05-15T09:28:51.850Z,180.00
2017-05-15T09:29:51.835Z,202.50
2017-05-15T09:30:51.845Z,135.00
2017-05-15T09:31:51.851Z,112.50
2017-05-15T09:32:51.848Z,112.50
2017-05-15T09:33:51.817Z,112.50
2017-05-15T09:34:51.840Z,225.00
2017-05-15T09:35:51.843Z,135.00
2017-05-15T09:36:51.842Z,135.00
2017-05-15T09:37:51.839Z,135.00
2017-05-15T09:38:51.838Z,180.00
2017-05-15T09:39:51.840Z,180.00
2017-05-15T09:40:51.849Z,90.00
2017-05-15T09:41:51.850Z,157.50
2017-05-15T09:42:51.811Z,180.00
2017-05-15T09:43:51.851Z,157.50
2017-05-15T09:44:51.851Z,202.50
2017-05-15T09:45:51.818Z,292.50
2017-05-15T09:46:51.853Z,292.50
2017-05-15T09:47:51.817Z,315.00
2017-05-15T09:48:51.849Z,292.50
2017-05-15T09:49:51.860Z,225.00
2017-05-15T09:50:51.962Z,270.00
2017-05-15T09:51:51.854Z,180.00
2017-05-15T09:52:51.812Z,157.50
2017-05-15T09:53:51.855Z,180.00
2017-05-15T09:54:51.881Z,292.50
2017-05-15T09:55:51.859Z,247.50
2017-05-15T09:56:51.858Z,202.50
2017-05-15T09:57:51.857Z,270.00
2017-05-15T09:58:51.879Z,270.00
2017-05-15T09:59:51.863Z,247.50
2017-05-15T10:00:51.847Z,270.00
2017-05-15T10:01:51.844Z,247.50
2017-05-15T10:02:51.825Z,270.00
2017-05-15T10:03:51.848Z,270.00
2017-05-15T10:04:51.864Z,247.50
2017-05-15T10:05:51.854Z,270.00
2017-05-15T10:06:51.860Z,202.50
2017-05-15T10:07:51.863Z,157.50
2017-05-15T10:08:51.907Z,180.00
2017-05-15T10:09:51.852Z,112.50
2017-05-15T10:10:51.851Z,112.50
2017-05-15T10:11:51.857Z,270.00
2017-05-15T10:12:51.852Z,247.50
2017-05-15T10:13:51.855Z,202.50
2017-05-15T10:14:51.907Z,292.50
2017-05-15T10:15:51.859Z,270.00
2017-05-15T10:16:51.890Z,270.00
2017-05-15T10:17:51.892Z,270.00
2017-05-15T10:18:51.873Z,270.00
2017-05-15T10:19:51.857Z,292.50
2017-05-15T10:20:51.872Z,292.50
2017-05-15T10:21:51.861Z,225.00
2017-05-15T10:22:51.861Z,270.00
2017-05-15T10:23:51.860Z,292.50
2017-05-15T10:24:51.861Z,270.00
2017-05-15T10:25:51.861Z,247.50
2017-05-15T10:26:51.862Z,270.00
2017-05-15T10:27:51.864Z,270.00
2017-05-15T10:28:51.820Z,270.00
2017-05-15T10:29:51.865Z,90.00
2017-05-15T10:30:51.863Z,112.50
2017-05-15T10:31:51.866Z,180.00
2017-05-15T10:32:51.877Z,157.50
2017-05-15T10:33:51.876Z,180.00
2017-05-15T10:34:51.863Z,202.50
2017-05-15T10:35:51.869Z,225.00
2017-05-15T10:36:51.877Z,67.50
2017-05-15T10:37:51.882Z,135.00
2017-05-15T10:38:51.868Z,180.00
2017-05-15T10:39:51.848Z,180.00
2017-05-15T10:40:51.883Z,247.50
2017-05-15T10:41:51.884Z,270.00
2017-05-15T10:42:51.913Z,292.50
2017-05-15T10:43:51.851Z,247.50
2017-05-15T10:44:51.851Z,292.50
2017-05-15T10:45:51.888Z,247.50
2017-05-15T10:46:51.905Z,247.50
2017-05-15T10:47:51.867Z,270.00
2017-05-15T10:48:51.887Z,157.50
2017-05-15T10:49:51.888Z,180.00
2017-05-15T10:50:51.875Z,180.00
2017-05-15T10:51:51.884Z,157.50
2017-05-15T10:52:51.883Z,180.00
2017-05-15T10:53:51.884Z,180.00
2017-05-15T10:54:51.889Z,157.50
2017-05-15T10:55:51.929Z,202.50
2017-05-15T10:56:51.890Z,180.00
2017-05-15T10:57:51.899Z,225.00
2017-05-15T10:58:51.892Z,202.50
2017-05-15T10:59:51.998Z,180.00
2017-05-15T11:00:51.934Z,157.50
2017-05-15T11:01:51.891Z,202.50
2017-05-15T11:02:51.859Z,247.50
2017-05-15T11:03:51.860Z,247.50
2017-05-15T11:04:51.860Z,270.00
2017-05-15T11:05:51.863Z,180.00
2017-05-15T11:06:51.864Z,180.00
2017-05-15T11:07:51.861Z,180.00
2017-05-15T11:08:51.861Z,247.50
2017-05-15T11:09:51.861Z,247.50
2017-05-15T11:10:51.861Z,202.50
2017-05-15T11:11:51.860Z,180.00
2017-05-15T11:12:51.890Z,157.50
2017-05-15T11:13:51.877Z,202.50
2017-05-15T11:14:51.862Z,202.50
2017-05-15T11:15:51.879Z,180.00
2017-05-15T11:16:51.883Z,202.50
2017-05-15T11:17:51.897Z,180.00
2017-05-15T11:18:51.919Z,135.00
2017-05-15T11:19:51.867Z,157.50
2017-05-15T11:20:51.925Z,202.50
2017-05-15T11:21:51.902Z,180.00
2017-05-15T11:22:51.905Z,180.00
2017-05-15T11:23:51.894Z,180.00
2017-05-15T11:24:51.907Z,202.50
2017-05-15T11:25:51.867Z,112.50
2017-05-15T11:26:51.886Z,112.50
2017-05-15T11:27:51.893Z,90.00
2017-05-15T11:28:51.897Z,112.50
2017-05-15T11:29:51.903Z,135.00
2017-05-15T11:30:51.899Z,112.50
2017-05-15T11:31:52.014Z,180.00
2017-05-15T11:32:51.869Z,202.50
2017-05-15T11:33:51.897Z,202.50
2017-05-15T11:34:51.891Z,225.00
2017-05-15T11:35:51.901Z,157.50
2017-05-15T11:36:51.914Z,157.50
2017-05-15T11:37:51.896Z,180.00
2017-05-15T11:38:51.929Z,270.00
2017-05-15T11:39:51.877Z,225.00
2017-05-15T11:40:51.916Z,157.50
2017-05-15T11:41:51.909Z,157.50
2017-05-15T11:42:51.914Z,202.50
2017-05-15T11:43:51.894Z,270.00
2017-05-15T11:44:51.913Z,247.50
2017-05-15T11:45:51.916Z,225.00
2017-05-15T11:46:51.912Z,225.00
2017-05-15T11:47:51.914Z,225.00
2017-05-15T11:48:51.916Z,180.00
2017-05-15T11:49:51.907Z,157.50
2017-05-15T11:50:51.907Z,180.00
2017-05-15T11:51:51.908Z,180.00
2017-05-15T11:52:51.922Z,180.00
2017-05-15T11:53:51.924Z,202.50
2017-05-15T11:54:51.878Z,112.50
2017-05-15T11:55:51.918Z,157.50
2017-05-15T11:56:51.912Z,157.50
2017-05-15T11:57:51.898Z,112.50
2017-05-15T11:58:51.913Z,90.00
2017-05-15T11:59:51.919Z,112.50
2017-05-15T12:00:51.962Z,112.50
2017-05-15T12:01:52.028Z,90.00
2017-05-15T12:02:51.922Z,157.50
2017-05-15T12:03:51.923Z,180.00
2017-05-15T12:04:51.891Z,157.50
2017-05-15T12:05:51.912Z,90.00
2017-05-15T12:06:51.923Z,135.00
2017-05-15T12:07:51.875Z,180.00
2017-05-15T12:08:51.925Z,135.00
2017-05-15T12:09:51.916Z,112.50
2017-05-15T12:10:51.928Z,225.00
2017-05-15T12:11:51.927Z,90.00
2017-05-15T12:12:51.927Z,112.50
2017-05-15T12:13:51.896Z,135.00
2017-05-15T12:14:51.923Z,157.50
2017-05-15T12:15:51.920Z,247.50
2017-05-15T12:16:51.915Z,180.00
2017-05-15T12:17:51.920Z,247.50
2017-05-15T12:18:51.919Z,247.50
2017-05-15T12:19:51.905Z,292.50
2017-05-15T12:20:51.920Z,202.50
2017-05-15T12:21:51.922Z,292.50
2017-05-15T12:22:51.919Z,292.50
2017-05-15T12:23:51.919Z,247.50
2017-05-15T12:24:51.923Z,247.50
2017-05-15T12:25:51.921Z,270.00
2017-05-15T12:26:51.922Z,180.00
2017-05-15T12:27:51.922Z,270.00
2017-05-15T12:28:51.911Z,225.00
2017-05-15T12:29:51.988Z,157.50
2017-05-15T12:30:51.922Z,90.00
2017-05-15T12:31:51.924Z,90.00
2017-05-15T12:32:51.890Z,90.00
2017-05-15T12:33:51.906Z,202.50
2017-05-15T12:34:51.904Z,315.00
2017-05-15T12:35:51.905Z,157.50